Anson, ME (04911)

9:24 AM EST on February 10, 2016 (GMT -0500)
Faulkner Hill, Starks, ME | | Change Station
CLOSE
Current Station
Personal Weather Station
Location: Starks, ME
Elevation: 276 ft
Nearby Weather Stations

Elev 276 ft 44.73 °N, 69.93 °W | Updated 32 seconds ago

Overcast
Overcast
12.7 °F
Feels Like 13 °F
N
0.0
Wind Variable Wind from SW
Gusts 0.0 mph

Today
High -- | Low -- °F
--% Chance of Precip.
Yesterday
High -- | Low -- °F
Precip. -- in
Pressure 29.58 in
Visibility 9.0 miles
Clouds Mostly Cloudy 2500 ft
Overcast 3400 ft
Windchill 13 °F
Dew Point 5 °F
Humidity 71%
Rainfall 0.00 in
Snow Depth Not available.
6:48 AM 5:00 PM
Waxing Crescent, 5% visible
SPECI KWVL 101411Z AUTO 21003KT 9SM -SN BKN025 OVC034 M08/M10 A2958 RMK AO2 SNB05 P0000 FZRANO
Pressure 29.58 in
Visibility 9.0 miles
Clouds Mostly Cloudy 2500 ft
Overcast 3400 ft
Windchill 13 °F
Dew Point 5 °F
Humidity 71%
Rainfall 0.00 in
Snow Depth Not available.
6:48 AM 5:00 PM
Waxing Crescent, 5% visible
SPECI KWVL 101411Z AUTO 21003KT 9SM -SN BKN025 OVC034 M08/M10 A2958 RMK AO2 SNB05 P0000 FZRANO

10-Day Weather Forecast

Almanac

Astronomy

Feb. 10, 2016 Rise Set
Actual Time
Civil Twilight
Nautical Twilight
Astronomical Twilight
Moon
Length of Visible Light
Length of Day
Tomorrow will be .
, % of the Moon is Illuminated

Today's Extremes

State Highs State Lows

Community

WunderPhotos

Upload Photos

1,891,850 photos uploaded!

WunderBlog® & News

Nearby

Air Quality

  Air Quality AQ Index Pollutant
Not available.

Snow Depth

Station Depth Elevation

Earthquake Activity

City Distance Mag. Time & Date
Minimum magnitude displayed is 2.5.

Coastal Water Temperatures

Place Temperature

Stations

Nearby Weather Stations

Station Location Temp. Windchill Dew Point Humidity Wind Precip. Elev Updated Type
                   

Watches & Warnings

There are currently no watches in effect.